createdAt,value
2017-02-16T00:06:45.011Z,1030.280
2017-02-16T00:09:47.522Z,1030.268
2017-02-16T00:12:50.270Z,1030.286
2017-02-16T00:15:54.260Z,1030.300
2017-02-16T00:24:59.515Z,1030.432
2017-02-16T00:37:19.735Z,1030.356
2017-02-16T00:43:26.128Z,1030.307
2017-02-16T00:46:29.833Z,1030.300
2017-02-16T00:49:34.178Z,1030.290
2017-02-16T00:52:31.503Z,1030.321
2017-02-16T00:55:37.189Z,1030.381
2017-02-16T00:58:43.039Z,1030.381
2017-02-16T01:01:45.550Z,1030.347
2017-02-16T01:04:50.562Z,1030.319
2017-02-16T01:07:55.514Z,1030.295
2017-02-16T01:10:59.959Z,1030.297
2017-02-16T01:17:04.710Z,1030.237
2017-02-16T01:20:16.250Z,1030.231
2017-02-16T01:23:20.166Z,1030.287
2017-02-16T01:26:25.055Z,1030.293
2017-02-16T01:29:30.035Z,1030.264
2017-02-16T01:32:36.664Z,1030.204
2017-02-16T01:38:48.186Z,1030.180
2017-02-16T01:47:59.603Z,1030.227
2017-02-16T01:50:56.356Z,1030.162
2017-02-16T01:54:05.606Z,1030.160
2017-02-16T01:57:08.057Z,1030.111
2017-02-16T02:00:11.939Z,1030.071
2017-02-16T02:06:19.358Z,1030.006
2017-02-16T02:12:26.527Z,1029.922
2017-02-16T02:15:29.033Z,1029.843
2017-02-16T02:21:36.403Z,1029.763
2017-02-16T02:24:39.513Z,1029.728
2017-02-16T02:42:59.797Z,1029.554
2017-02-16T02:52:09.710Z,1029.460
2017-02-16T02:55:13.100Z,1029.439
2017-02-16T02:58:16.891Z,1029.444
2017-02-16T03:10:30.057Z,1029.399
2017-02-16T03:19:40.354Z,1029.433
2017-02-16T03:22:42.808Z,1029.347
2017-02-16T03:34:56.548Z,1029.106
2017-02-16T03:41:03.580Z,1028.978
2017-02-16T03:44:06.304Z,1028.933
2017-02-16T03:47:09.603Z,1028.889
2017-02-16T03:50:13.119Z,1028.911
2017-02-16T03:53:15.670Z,1028.983
2017-02-16T03:56:12.765Z,1029.012
2017-02-16T03:59:19.665Z,1028.981
2017-02-16T04:02:22.359Z,1028.973
2017-02-16T04:08:32.634Z,1028.950
2017-02-16T04:14:42.651Z,1029.018
2017-02-16T04:17:42.523Z,1028.987
2017-02-16T04:20:53.273Z,1029.008
2017-02-16T04:23:58.706Z,1029.043
2017-02-16T04:27:03.600Z,1029.148
2017-02-16T04:33:10.394Z,1029.085
2017-02-16T04:36:25.043Z,1029.184
2017-02-16T04:39:28.686Z,1029.124
2017-02-16T04:42:32.206Z,1029.038
2017-02-16T04:45:35.622Z,1028.997
2017-02-16T04:48:38.480Z,1028.950
2017-02-16T04:54:46.482Z,1028.854
2017-02-16T05:00:54.889Z,1028.673
2017-02-16T05:07:03.136Z,1028.470
2017-02-16T05:13:11.966Z,1028.448
2017-02-16T05:16:15.766Z,1028.570
2017-02-16T05:22:23.419Z,1028.391
2017-02-16T05:28:32.157Z,1028.535
2017-02-16T05:31:35.635Z,1028.499
2017-02-16T05:34:38.974Z,1028.563
2017-02-16T05:37:42.544Z,1028.613
2017-02-16T05:40:46.027Z,1028.646
2017-02-16T05:43:49.680Z,1028.536
2017-02-16T05:46:54.453Z,1028.445
2017-02-16T05:49:57.470Z,1028.555
2017-02-16T05:53:01.242Z,1028.574
2017-02-16T05:56:04.507Z,1028.403
2017-02-16T05:59:08.579Z,1028.480
2017-02-16T06:02:12.427Z,1028.454
2017-02-16T06:05:16.238Z,1028.515
2017-02-16T06:08:19.687Z,1028.504
2017-02-16T06:11:24.357Z,1028.558
2017-02-16T06:14:28.062Z,1028.470
2017-02-16T06:17:31.922Z,1028.409
2017-02-16T06:23:39.835Z,1028.332
2017-02-16T06:29:42.536Z,1028.366
2017-02-16T06:32:47.492Z,1028.296
2017-02-16T06:38:57.728Z,1028.263
2017-02-16T06:42:02.718Z,1028.320
2017-02-16T06:45:07.577Z,1028.254
2017-02-16T06:51:22.507Z,1028.344
2017-02-16T06:54:26.076Z,1028.364
2017-02-16T06:57:30.195Z,1028.433
2017-02-16T07:00:34.184Z,1028.414
2017-02-16T07:03:39.125Z,1028.348
2017-02-16T07:06:43.043Z,1028.301
2017-02-16T07:09:48.067Z,1028.226
2017-02-16T07:12:51.753Z,1028.324
2017-02-16T07:15:55.749Z,1028.259
2017-02-16T07:18:59.509Z,1028.263
2017-02-16T07:22:03.671Z,1028.271
2017-02-16T07:25:07.793Z,1028.247
2017-02-16T07:31:17.042Z,1028.181
2017-02-16T07:37:26.559Z,1028.138
2017-02-16T07:40:30.053Z,1028.096
2017-02-16T07:43:35.113Z,1028.144
2017-02-16T07:46:38.908Z,1028.154
2017-02-16T07:55:44.611Z,1028.108
2017-02-16T07:58:55.307Z,1028.131
2017-02-16T08:01:59.383Z,1028.167
2017-02-16T08:05:03.219Z,1028.094
2017-02-16T08:11:12.276Z,1027.977
2017-02-16T08:14:16.412Z,1027.959
2017-02-16T08:17:20.723Z,1027.983
2017-02-16T08:20:24.900Z,1027.973
2017-02-16T08:23:28.762Z,1027.970
2017-02-16T08:26:32.370Z,1027.970
2017-02-16T08:32:41.948Z,1027.978
2017-02-16T08:35:46.889Z,1027.960
2017-02-16T08:38:52.165Z,1027.969
2017-02-16T08:41:55.935Z,1027.954
2017-02-16T08:45:00.024Z,1027.930
2017-02-16T08:48:04.001Z,1027.871
2017-02-16T08:51:08.424Z,1027.832
2017-02-16T08:57:18.777Z,1027.661
2017-02-16T09:00:22.892Z,1027.670
2017-02-16T09:03:27.495Z,1027.627
2017-02-16T09:06:31.549Z,1027.697
2017-02-16T09:09:36.723Z,1027.693
2017-02-16T09:15:44.947Z,1027.580
2017-02-16T09:18:49.524Z,1027.519
2017-02-16T09:21:54.227Z,1027.428
2017-02-16T09:24:58.620Z,1027.378
2017-02-16T09:28:03.382Z,1027.334
2017-02-16T09:31:02.027Z,1027.331
2017-02-16T09:34:13.535Z,1027.325
2017-02-16T09:37:17.988Z,1027.299
2017-02-16T09:40:22.907Z,1027.194
2017-02-16T09:43:27.709Z,1027.210
2017-02-16T09:46:32.390Z,1027.109
2017-02-16T09:49:37.256Z,1027.070
2017-02-16T09:52:35.821Z,1027.041
2017-02-16T09:58:52.693Z,1026.885
2017-02-16T10:01:57.511Z,1026.814
2017-02-16T10:05:03.366Z,1026.761
2017-02-16T10:08:07.853Z,1026.787
2017-02-16T10:11:12.547Z,1026.826
2017-02-16T10:14:17.435Z,1026.776
2017-02-16T10:17:22.395Z,1026.750
2017-02-16T10:20:26.894Z,1026.722
2017-02-16T10:23:32.965Z,1026.701
2017-02-16T10:26:37.718Z,1026.673
2017-02-16T10:29:36.694Z,1026.585
2017-02-16T10:32:48.283Z,1026.524
2017-02-16T10:35:53.074Z,1026.482
2017-02-16T10:38:58.090Z,1026.444
2017-02-16T10:42:02.855Z,1026.464
2017-02-16T10:45:07.436Z,1026.343
2017-02-16T10:48:12.552Z,1026.293
2017-02-16T10:51:18.176Z,1026.220
2017-02-16T10:54:23.133Z,1026.212
2017-02-16T10:57:27.789Z,1026.266
2017-02-16T11:00:33.548Z,1026.186
2017-02-16T11:06:44.446Z,1026.011
2017-02-16T11:09:49.806Z,1025.903
2017-02-16T11:12:54.604Z,1025.879
2017-02-16T11:15:59.596Z,1025.823
2017-02-16T11:19:04.363Z,1025.739
2017-02-16T11:22:09.487Z,1025.684
2017-02-16T11:25:14.565Z,1025.629
2017-02-16T11:28:19.607Z,1025.576
2017-02-16T11:31:25.908Z,1025.494
2017-02-16T11:34:30.685Z,1025.498
2017-02-16T11:37:35.861Z,1025.449
2017-02-16T11:40:34.746Z,1025.463
2017-02-16T11:43:46.187Z,1025.413
2017-02-16T11:46:50.994Z,1025.338
2017-02-16T11:49:57.153Z,1025.314
2017-02-16T11:53:02.207Z,1025.352
2017-02-16T11:56:07.333Z,1025.290
2017-02-16T11:59:12.253Z,1025.228
2017-02-16T12:02:17.427Z,1025.178
2017-02-16T12:05:21.975Z,1025.139
2017-02-16T12:08:27.074Z,1025.145
2017-02-16T12:11:31.803Z,1025.099
2017-02-16T12:14:37.720Z,1025.103
2017-02-16T12:17:42.512Z,1025.037
2017-02-16T12:20:47.295Z,1025.055
2017-02-16T12:26:58.709Z,1024.981
2017-02-16T12:30:03.384Z,1024.980
2017-02-16T12:33:07.856Z,1025.017
2017-02-16T12:36:13.893Z,1024.995
2017-02-16T12:39:18.488Z,1024.976
2017-02-16T12:42:23.245Z,1024.958
2017-02-16T12:45:27.790Z,1024.923
2017-02-16T12:51:38.702Z,1024.903
2017-02-16T12:54:43.698Z,1024.827
2017-02-16T12:57:48.160Z,1024.858
2017-02-16T13:00:52.999Z,1024.840
2017-02-16T13:03:58.170Z,1024.836
2017-02-16T13:07:02.687Z,1024.797
2017-02-16T13:10:07.603Z,1024.813
2017-02-16T13:16:18.248Z,1024.710
2017-02-16T13:19:22.952Z,1024.711
2017-02-16T13:22:27.849Z,1024.709
2017-02-16T13:25:32.551Z,1024.722
2017-02-16T13:28:38.448Z,1024.715
2017-02-16T13:31:43.064Z,1024.769
2017-02-16T13:34:47.715Z,1024.705
2017-02-16T13:37:52.321Z,1024.685
2017-02-16T13:40:57.092Z,1024.679
2017-02-16T13:44:01.825Z,1024.673
2017-02-16T13:47:07.719Z,1024.712
2017-02-16T13:50:12.554Z,1024.697
2017-02-16T13:56:22.532Z,1024.599
2017-02-16T13:59:24.209Z,1024.585
2017-02-16T14:02:26.211Z,1024.532
2017-02-16T14:05:30.830Z,1024.544
2017-02-16T14:08:36.638Z,1024.527
2017-02-16T14:11:42.319Z,1024.505
2017-02-16T14:14:48.025Z,1024.425
2017-02-16T14:20:59.184Z,1024.457
2017-02-16T14:24:04.762Z,1024.457
2017-02-16T14:27:10.438Z,1024.415
2017-02-16T14:30:15.921Z,1024.374
2017-02-16T14:33:21.543Z,1024.375
2017-02-16T14:36:26.546Z,1024.360
2017-02-16T14:39:31.972Z,1024.309
2017-02-16T14:42:36.994Z,1024.295
2017-02-16T14:45:48.784Z,1024.309
2017-02-16T14:48:53.241Z,1024.329
2017-02-16T14:51:59.041Z,1024.336
2017-02-16T14:55:03.879Z,1024.329
2017-02-16T14:58:07.884Z,1024.294
2017-02-16T15:01:12.608Z,1024.311
2017-02-16T15:04:16.631Z,1024.349
2017-02-16T15:07:21.066Z,1024.370
2017-02-16T15:13:32.204Z,1024.414
2017-02-16T15:16:36.480Z,1024.416
2017-02-16T15:19:41.080Z,1024.415
2017-02-16T15:25:51.292Z,1024.397
2017-02-16T15:28:56.689Z,1024.352
2017-02-16T15:32:01.416Z,1024.307
2017-02-16T15:35:05.818Z,1024.270
2017-02-16T15:38:10.545Z,1024.284
2017-02-16T15:41:14.970Z,1024.290
2017-02-16T15:44:19.300Z,1024.304
2017-02-16T15:47:23.877Z,1024.325
2017-02-16T15:50:28.423Z,1024.338
2017-02-16T15:53:32.543Z,1024.356
2017-02-16T15:56:38.076Z,1024.343
2017-02-16T15:59:36.714Z,1024.340
2017-02-16T16:02:48.081Z,1024.405
2017-02-16T16:05:52.775Z,1024.423
2017-02-16T16:08:57.524Z,1024.426
2017-02-16T16:12:02.083Z,1024.437
2017-02-16T16:15:06.885Z,1024.390
2017-02-16T16:18:11.553Z,1024.422
2017-02-16T16:24:20.666Z,1024.443
2017-02-16T16:30:30.372Z,1024.479
2017-02-16T16:33:34.869Z,1024.508
2017-02-16T16:36:35.210Z,1024.538
2017-02-16T16:39:39.592Z,1024.503
2017-02-16T16:42:45.200Z,1024.496
2017-02-16T16:52:02.834Z,1024.523
2017-02-16T16:55:06.339Z,1024.528
2017-02-16T16:58:11.920Z,1024.602
2017-02-16T17:01:17.307Z,1024.651
2017-02-16T17:04:22.618Z,1024.666
2017-02-16T17:07:27.788Z,1024.695
2017-02-16T17:10:28.037Z,1024.667
2017-02-16T17:13:39.003Z,1024.651
2017-02-16T17:16:44.562Z,1024.642
2017-02-16T17:22:55.265Z,1024.639
2017-02-16T17:26:06.716Z,1024.627
2017-02-16T17:29:04.653Z,1024.618
2017-02-16T17:32:09.935Z,1024.628
2017-02-16T17:35:15.840Z,1024.695
2017-02-16T17:41:27.981Z,1024.677
2017-02-16T17:44:32.396Z,1024.660
2017-02-16T17:47:37.774Z,1024.613
2017-02-16T17:50:43.798Z,1024.573
2017-02-16T17:56:50.051Z,1024.507
2017-02-16T18:00:01.121Z,1024.514
2017-02-16T18:06:13.650Z,1024.390
2017-02-16T18:09:19.541Z,1024.376
2017-02-16T18:12:24.273Z,1024.320
2017-02-16T18:15:29.409Z,1024.276
2017-02-16T18:18:34.594Z,1024.281
2017-02-16T18:21:34.967Z,1024.255
2017-02-16T18:24:46.480Z,1024.226
2017-02-16T18:27:51.118Z,1024.216
2017-02-16T18:30:56.665Z,1024.204
2017-02-16T18:34:01.519Z,1024.179
2017-02-16T18:37:06.880Z,1024.207
2017-02-16T18:40:12.314Z,1024.150
2017-02-16T18:43:17.673Z,1024.044
2017-02-16T18:46:22.842Z,1024.021
2017-02-16T18:49:28.232Z,1023.990
2017-02-16T18:52:33.592Z,1023.985
2017-02-16T18:55:38.877Z,1023.969
2017-02-16T18:58:39.136Z,1023.927
2017-02-16T19:01:49.771Z,1023.928
2017-02-16T19:04:55.228Z,1023.875
2017-02-16T19:08:00.354Z,1023.733
2017-02-16T19:10:59.961Z,1023.676
2017-02-16T19:14:10.709Z,1023.612
2017-02-16T19:17:16.206Z,1023.560
2017-02-16T19:20:21.726Z,1023.525
2017-02-16T19:23:26.196Z,1023.529
2017-02-16T19:26:31.525Z,1023.532
2017-02-16T19:29:36.883Z,1023.551
2017-02-16T19:32:42.935Z,1023.555
2017-02-16T19:35:47.028Z,1023.551
2017-02-16T19:38:47.487Z,1023.523
2017-02-16T19:41:58.292Z,1023.484
2017-02-16T19:44:58.686Z,1023.465
2017-02-16T19:48:09.787Z,1023.455
2017-02-16T19:51:14.912Z,1023.403
2017-02-16T19:54:20.396Z,1023.376
2017-02-16T19:57:25.731Z,1023.338
2017-02-16T20:00:36.992Z,1023.335
2017-02-16T20:03:35.601Z,1023.313
2017-02-16T20:06:40.973Z,1023.320
2017-02-16T20:09:46.216Z,1023.319
2017-02-16T20:12:51.617Z,1023.275
2017-02-16T20:15:56.934Z,1023.260
2017-02-16T20:19:02.029Z,1023.216
2017-02-16T20:22:02.174Z,1023.208
2017-02-16T20:25:12.843Z,1023.167
2017-02-16T20:28:16.691Z,1023.159
2017-02-16T20:31:22.069Z,1023.139
2017-02-16T20:34:24.273Z,1023.079
2017-02-16T20:37:33.944Z,1023.082
2017-02-16T20:43:43.685Z,1023.008
2017-02-16T20:56:05.921Z,1023.026
2017-02-16T20:59:11.862Z,1023.008
2017-02-16T21:02:17.244Z,1022.997
2017-02-16T21:05:17.584Z,1023.015
2017-02-16T21:08:29.119Z,1022.972
2017-02-16T21:11:33.794Z,1023.001
2017-02-16T21:14:38.641Z,1023.011
2017-02-16T21:17:44.102Z,1022.970
2017-02-16T21:20:49.364Z,1022.927
2017-02-16T21:23:56.405Z,1022.959
2017-02-16T21:26:52.017Z,1022.964
2017-02-16T21:30:04.024Z,1022.924
2017-02-16T21:33:09.051Z,1022.911
2017-02-16T21:36:12.289Z,1022.945
2017-02-16T21:39:18.040Z,1022.882
2017-02-16T21:42:23.449Z,1022.875
2017-02-16T21:48:35.274Z,1022.804
2017-02-16T21:51:38.601Z,1022.790
2017-02-16T21:54:44.037Z,1022.741
2017-02-16T21:57:44.181Z,1022.687
2017-02-16T22:00:50.046Z,1022.710
2017-02-16T22:03:59.514Z,1022.758
2017-02-16T22:07:05.004Z,1022.748
2017-02-16T22:10:10.034Z,1022.684
2017-02-16T22:13:14.493Z,1022.677
2017-02-16T22:16:20.351Z,1022.678
2017-02-16T22:19:25.392Z,1022.604
2017-02-16T22:25:36.993Z,1022.548
2017-02-16T22:28:40.848Z,1022.544
2017-02-16T22:31:46.576Z,1022.539
2017-02-16T22:34:51.750Z,1022.519
2017-02-16T22:37:57.037Z,1022.460
2017-02-16T22:41:02.950Z,1022.456
2017-02-16T22:44:06.460Z,1022.481
2017-02-16T22:47:11.905Z,1022.485
2017-02-16T22:50:17.209Z,1022.379
2017-02-16T22:53:22.367Z,1022.319
2017-02-16T22:56:27.498Z,1022.253
2017-02-16T22:59:33.013Z,1022.271
2017-02-16T23:02:38.042Z,1022.268
2017-02-16T23:05:43.374Z,1022.224
2017-02-16T23:08:48.731Z,1022.195
2017-02-16T23:11:48.470Z,1022.157
2017-02-16T23:14:54.309Z,1022.127
2017-02-16T23:18:05.051Z,1022.095
2017-02-16T23:21:10.887Z,1022.087
2017-02-16T23:24:15.607Z,1022.093
2017-02-16T23:27:20.492Z,1022.069
2017-02-16T23:30:19.568Z,1022.088
2017-02-16T23:33:30.066Z,1022.055
2017-02-16T23:36:33.033Z,1021.999
2017-02-16T23:39:38.796Z,1021.928
2017-02-16T23:42:42.258Z,1021.953
2017-02-16T23:45:47.953Z,1021.913
2017-02-16T23:48:53.335Z,1021.886
2017-02-16T23:55:06.128Z,1021.790
2017-02-16T23:58:08.946Z,1021.715
